createdAt,value
2023-03-05T00:01:51.666Z,89.37
2023-03-05T00:04:19.631Z,89.36
2023-03-05T00:06:47.619Z,89.93
2023-03-05T00:09:15.994Z,89.25
2023-03-05T00:11:44.669Z,90.03
2023-03-05T00:14:13.116Z,90.80
2023-03-05T00:16:42.526Z,90.65
2023-03-05T00:21:52.918Z,90.07
2023-03-05T00:24:20.637Z,90.98
2023-03-05T00:26:48.770Z,91.16
2023-03-05T00:29:18.958Z,91.77
2023-03-05T00:31:47.452Z,91.24
2023-03-05T00:34:18.235Z,90.68
2023-03-05T00:36:53.209Z,90.86
2023-03-05T00:39:22.606Z,91.46
2023-03-05T00:41:58.946Z,92.00
2023-03-05T00:47:10.570Z,91.71
2023-03-05T00:49:41.374Z,91.86
2023-03-05T00:52:09.599Z,90.69
2023-03-05T00:54:42.513Z,90.98
2023-03-05T00:59:52.628Z,90.59
2023-03-05T01:02:20.589Z,90.23
2023-03-05T01:07:39.592Z,90.28
2023-03-05T01:10:18.166Z,89.65
2023-03-05T01:15:28.811Z,90.24
2023-03-05T01:18:01.539Z,91.64
2023-03-05T01:20:38.801Z,92.28
2023-03-05T01:23:06.569Z,91.43
2023-03-05T01:25:34.461Z,90.91
2023-03-05T01:28:02.815Z,90.13
2023-03-05T01:30:30.660Z,90.11
2023-03-05T01:32:59.560Z,90.80
2023-03-05T01:35:27.497Z,91.48
2023-03-05T01:38:00.371Z,90.81
2023-03-05T01:40:31.020Z,90.51
2023-03-05T01:43:06.923Z,90.26
2023-03-05T01:45:35.083Z,90.13
2023-03-05T01:48:03.565Z,91.06
2023-03-05T01:50:31.961Z,91.52
2023-03-05T01:53:04.427Z,91.52
2023-03-05T01:55:34.854Z,90.95
2023-03-05T01:58:11.584Z,91.24
2023-03-05T02:00:51.087Z,91.20
2023-03-05T02:03:20.896Z,91.22
2023-03-05T02:05:48.924Z,90.39
2023-03-05T02:08:21.888Z,90.21
2023-03-05T02:10:53.215Z,90.69
2023-03-05T02:13:43.273Z,90.61
2023-03-05T02:16:11.300Z,90.54
2023-03-05T02:18:39.196Z,90.52
2023-03-05T02:21:09.213Z,90.50
2023-03-05T02:23:38.523Z,90.14
2023-03-05T02:26:09.950Z,90.19
2023-03-05T02:28:48.086Z,90.31
2023-03-05T02:31:19.545Z,90.25
2023-03-05T02:33:50.298Z,90.17
2023-03-05T02:36:19.898Z,90.20
2023-03-05T02:38:48.282Z,90.37
2023-03-05T02:41:17.301Z,90.66
2023-03-05T02:43:45.197Z,90.67
2023-03-05T02:46:13.582Z,90.75
2023-03-05T02:48:41.568Z,90.52
2023-03-05T02:51:12.380Z,90.40
2023-03-05T02:53:40.514Z,89.90
2023-03-05T02:57:29.409Z,91.60
2023-03-05T02:59:57.639Z,91.68
2023-03-05T03:02:25.550Z,91.40
2023-03-05T03:04:53.712Z,90.74
2023-03-05T03:07:21.518Z,90.83
2023-03-05T03:09:49.712Z,90.81
2023-03-05T03:12:17.655Z,90.56
2023-03-05T03:14:45.690Z,90.20
2023-03-05T03:17:15.882Z,89.81
2023-03-05T03:19:45.298Z,90.19
2023-03-05T03:22:14.505Z,90.13
2023-03-05T03:24:43.681Z,90.25
2023-03-05T03:27:11.704Z,90.44
2023-03-05T03:29:39.652Z,90.78
2023-03-05T03:32:08.873Z,90.71
2023-03-05T03:34:36.902Z,90.73
2023-03-05T03:37:04.939Z,90.76
2023-03-05T03:39:32.984Z,92.06
2023-03-05T03:42:01.013Z,91.84
2023-03-05T03:44:28.923Z,91.93
2023-03-05T03:46:56.870Z,92.13
2023-03-05T03:49:26.283Z,91.44
2023-03-05T03:51:54.936Z,91.07
2023-03-05T03:54:23.362Z,90.74
2023-03-05T03:56:51.948Z,90.55
2023-03-05T03:59:19.985Z,90.79
2023-03-05T04:01:48.227Z,90.93
2023-03-05T04:04:16.371Z,90.92
2023-03-05T04:06:47.854Z,91.07
2023-03-05T04:09:16.035Z,90.99
2023-03-05T04:11:44.060Z,90.53
2023-03-05T04:14:12.104Z,90.87
2023-03-05T04:16:40.141Z,90.41
2023-03-05T04:19:08.190Z,89.75
2023-03-05T04:21:36.206Z,89.69
2023-03-05T04:24:04.601Z,89.55
2023-03-05T04:26:32.682Z,89.75
2023-03-05T04:29:00.538Z,88.75
2023-03-05T04:31:28.926Z,87.79
2023-03-05T04:33:56.791Z,87.17
2023-03-05T04:36:24.833Z,86.53
2023-03-05T04:38:52.906Z,86.45
2023-03-05T04:41:20.950Z,86.96
2023-03-05T04:43:48.872Z,87.28
2023-03-05T04:46:17.081Z,85.55
2023-03-05T04:48:45.012Z,85.47
2023-03-05T04:51:13.329Z,86.16
2023-03-05T04:53:41.208Z,85.16
2023-03-05T04:56:09.218Z,85.29
2023-03-05T04:58:37.139Z,85.79
2023-03-05T05:01:06.810Z,84.27
2023-03-05T05:03:34.996Z,84.87
2023-03-05T05:06:03.101Z,85.01
2023-03-05T05:08:31.185Z,83.54
2023-03-05T05:11:05.208Z,82.56
2023-03-05T05:13:33.862Z,82.20
2023-03-05T05:16:02.391Z,81.87
2023-03-05T05:18:30.382Z,82.22
2023-03-05T05:20:58.321Z,82.65
2023-03-05T05:23:26.385Z,83.02
2023-03-05T05:26:02.147Z,82.61
2023-03-05T05:28:30.928Z,82.47
2023-03-05T05:30:59.093Z,81.74
2023-03-05T05:33:27.335Z,80.83
2023-03-05T05:35:55.508Z,81.21
2023-03-05T05:38:23.420Z,79.61
2023-03-05T05:40:51.429Z,79.85
2023-03-05T05:43:19.362Z,80.35
2023-03-05T05:45:47.536Z,79.94
2023-03-05T05:48:16.160Z,78.12
2023-03-05T05:50:44.169Z,77.92
2023-03-05T05:53:12.058Z,77.74
2023-03-05T05:55:42.765Z,77.60
2023-03-05T05:58:10.733Z,76.35
2023-03-05T06:00:39.295Z,76.06
2023-03-05T06:03:08.131Z,74.36
2023-03-05T06:05:36.122Z,72.88
2023-03-05T06:08:04.823Z,73.24
2023-03-05T06:10:32.809Z,73.33
2023-03-05T06:13:00.906Z,73.17
2023-03-05T06:15:29.339Z,71.53
2023-03-05T06:17:59.778Z,70.07
2023-03-05T06:20:28.940Z,71.50
2023-03-05T06:22:57.074Z,71.22
2023-03-05T06:25:24.951Z,70.33
2023-03-05T06:27:52.924Z,69.66
2023-03-05T06:30:20.946Z,69.28
2023-03-05T06:32:49.040Z,68.87
2023-03-05T06:35:17.151Z,69.82
2023-03-05T06:37:45.191Z,68.26
2023-03-05T06:40:13.694Z,68.87
2023-03-05T06:42:41.634Z,67.71
2023-03-05T06:45:10.410Z,67.20
2023-03-05T06:47:38.378Z,67.12
2023-03-05T06:50:07.537Z,66.74
2023-03-05T06:52:35.653Z,65.68
2023-03-05T06:55:04.000Z,66.87
2023-03-05T06:57:31.975Z,66.80
2023-03-05T07:00:00.108Z,66.21
2023-03-05T07:02:28.025Z,67.05
2023-03-05T07:04:56.435Z,65.50
2023-03-05T07:07:24.434Z,64.39
2023-03-05T07:09:54.001Z,63.56
2023-03-05T07:12:22.091Z,64.40
2023-03-05T07:14:51.043Z,65.25
2023-03-05T07:17:18.973Z,63.23
2023-03-05T07:19:46.981Z,60.13
2023-03-05T07:22:14.894Z,60.19
2023-03-05T07:24:42.916Z,58.50
2023-03-05T07:27:10.801Z,56.08
2023-03-05T07:29:39.203Z,55.68
2023-03-05T07:32:07.802Z,54.90
2023-03-05T07:34:37.798Z,54.48
2023-03-05T07:37:06.217Z,55.96
2023-03-05T07:39:36.965Z,55.93
2023-03-05T07:42:05.385Z,53.90
2023-03-05T07:44:50.169Z,53.11
2023-03-05T07:47:18.957Z,53.82
2023-03-05T07:49:47.390Z,52.96
2023-03-05T07:52:15.608Z,54.51
2023-03-05T07:54:44.150Z,55.53
2023-03-05T07:57:13.798Z,55.03
2023-03-05T07:59:43.395Z,54.21
2023-03-05T08:02:13.514Z,55.43
2023-03-05T08:04:43.560Z,55.56
2023-03-05T08:07:16.382Z,55.41
2023-03-05T08:09:44.809Z,54.87
2023-03-05T08:12:13.607Z,54.03
2023-03-05T08:14:41.815Z,54.28
2023-03-05T08:17:10.278Z,54.12
2023-03-05T08:19:38.857Z,54.05
2023-03-05T08:22:07.362Z,55.39
2023-03-05T08:24:35.675Z,55.56
2023-03-05T08:27:04.269Z,55.53
2023-03-05T08:29:32.698Z,55.87
2023-03-05T08:32:01.663Z,55.37
2023-03-05T08:34:30.190Z,57.20
2023-03-05T08:36:58.766Z,57.29
2023-03-05T08:39:27.382Z,57.54
2023-03-05T08:41:56.071Z,56.78
2023-03-05T08:44:24.675Z,57.67
2023-03-05T08:46:53.100Z,58.55
2023-03-05T08:49:21.953Z,56.70
2023-03-05T08:51:50.804Z,57.42
2023-03-05T08:54:19.285Z,57.73
2023-03-05T08:56:47.789Z,57.23
2023-03-05T08:59:16.958Z,57.10
2023-03-05T09:01:45.542Z,55.98
2023-03-05T09:04:14.006Z,54.85
2023-03-05T09:06:42.847Z,55.20
2023-03-05T09:09:11.469Z,55.46
2023-03-05T09:11:40.060Z,54.97
2023-03-05T09:14:08.582Z,54.95
2023-03-05T09:16:38.734Z,55.64
2023-03-05T09:19:13.165Z,55.27
2023-03-05T09:21:42.637Z,54.54
2023-03-05T09:24:12.166Z,53.59
2023-03-05T09:26:42.503Z,52.93
2023-03-05T09:29:10.760Z,52.13
2023-03-05T09:31:39.240Z,50.65
2023-03-05T09:34:09.606Z,48.19
2023-03-05T09:36:38.311Z,45.50
2023-03-05T09:39:07.356Z,43.29
2023-03-05T09:41:55.419Z,39.09
2023-03-05T09:44:41.979Z,37.13
2023-03-05T09:47:24.431Z,36.61
2023-03-05T09:50:33.514Z,35.08
2023-03-05T09:53:33.698Z,34.10
2023-03-05T09:56:14.513Z,33.80
2023-03-05T09:58:51.526Z,31.62
2023-03-05T10:01:30.289Z,31.51
2023-03-05T10:04:12.919Z,32.12
2023-03-05T10:06:52.491Z,32.11
2023-03-05T10:09:46.118Z,34.78
2023-03-05T10:12:45.035Z,35.86
2023-03-05T10:15:15.191Z,36.97
2023-03-05T10:17:59.555Z,37.64
2023-03-05T10:20:35.892Z,37.73
2023-03-05T10:23:29.847Z,39.69
2023-03-05T10:26:25.858Z,40.46
2023-03-05T10:29:21.263Z,39.03
2023-03-05T10:32:27.903Z,40.27
2023-03-05T10:35:22.071Z,41.69
2023-03-05T10:38:08.709Z,42.01
2023-03-05T10:40:44.805Z,41.64
2023-03-05T10:43:37.935Z,43.67
2023-03-05T10:46:06.662Z,44.25
2023-03-05T10:48:51.788Z,44.32
2023-03-05T10:51:22.701Z,44.33
2023-03-05T10:53:50.784Z,44.90
2023-03-05T10:56:23.297Z,45.47
2023-03-05T10:58:53.132Z,44.59
2023-03-05T11:01:25.270Z,45.50
2023-03-05T11:04:07.118Z,45.44
2023-03-05T11:06:37.309Z,45.97
2023-03-05T11:09:32.877Z,46.02
2023-03-05T11:12:26.875Z,45.78
2023-03-05T11:15:10.564Z,45.34
2023-03-05T11:17:45.580Z,46.11
2023-03-05T11:20:32.277Z,45.99
2023-03-05T11:23:04.400Z,46.56
2023-03-05T11:25:51.717Z,46.64
2023-03-05T11:28:32.928Z,46.51
2023-03-05T11:31:16.247Z,46.24
2023-03-05T11:34:19.680Z,46.10
2023-03-05T11:36:53.593Z,45.34
2023-03-05T11:39:23.989Z,45.49
2023-03-05T11:41:59.486Z,46.39
2023-03-05T11:44:50.834Z,45.35
2023-03-05T11:47:25.734Z,45.62
2023-03-05T11:50:11.106Z,45.44
2023-03-05T11:52:47.190Z,45.29
2023-03-05T11:55:38.156Z,44.96
2023-03-05T11:58:34.519Z,45.29
2023-03-05T12:01:07.446Z,46.43
2023-03-05T12:03:39.266Z,45.58
2023-03-05T12:06:15.007Z,45.42
2023-03-05T12:08:47.806Z,45.81
2023-03-05T12:11:36.616Z,46.63
2023-03-05T12:14:46.529Z,46.18
2023-03-05T12:17:23.428Z,47.25
2023-03-05T12:20:00.513Z,46.50
2023-03-05T12:22:37.144Z,47.55
2023-03-05T12:25:48.998Z,46.92
2023-03-05T12:28:43.049Z,47.08
2023-03-05T12:31:29.901Z,47.87
2023-03-05T12:33:58.373Z,46.70
2023-03-05T12:36:36.978Z,47.22
2023-03-05T12:39:43.999Z,47.01
2023-03-05T12:42:30.757Z,46.66
2023-03-05T12:45:17.014Z,46.38
2023-03-05T12:48:12.659Z,46.69
2023-03-05T12:50:43.463Z,47.08
2023-03-05T12:53:17.918Z,47.07
2023-03-05T12:55:46.241Z,46.39
2023-03-05T12:58:26.738Z,46.33
2023-03-05T13:01:13.524Z,47.23
2023-03-05T13:04:11.097Z,47.28
2023-03-05T13:06:40.039Z,46.97
2023-03-05T13:09:20.029Z,46.97
2023-03-05T13:11:51.510Z,45.64
2023-03-05T13:14:42.848Z,46.81
2023-03-05T13:18:03.910Z,46.80
2023-03-05T13:20:34.830Z,46.34
2023-03-05T13:23:28.223Z,46.66
2023-03-05T13:26:20.904Z,47.43
2023-03-05T13:29:04.190Z,47.84
2023-03-05T13:31:35.935Z,47.63
2023-03-05T13:34:45.876Z,47.93
2023-03-05T13:37:17.338Z,48.22
2023-03-05T13:39:52.437Z,47.89
2023-03-05T13:42:32.726Z,48.75
2023-03-05T13:45:06.331Z,48.33
2023-03-05T13:47:37.023Z,49.13
2023-03-05T13:50:09.072Z,48.67
2023-03-05T13:52:38.940Z,48.77
2023-03-05T13:55:17.913Z,49.23
2023-03-05T13:57:51.001Z,49.51
2023-03-05T14:00:35.477Z,48.50
2023-03-05T14:03:36.268Z,49.41
2023-03-05T14:06:11.041Z,49.36
2023-03-05T14:08:40.508Z,49.93
2023-03-05T14:11:14.736Z,48.85
2023-03-05T14:13:45.390Z,49.27
2023-03-05T14:16:25.877Z,48.81
2023-03-05T14:18:59.209Z,49.95
2023-03-05T14:21:45.466Z,49.70
2023-03-05T14:24:21.897Z,49.03
2023-03-05T14:26:58.964Z,48.95
2023-03-05T14:29:29.354Z,51.17
2023-03-05T14:32:03.275Z,50.29
2023-03-05T14:34:35.780Z,49.88
2023-03-05T14:37:08.152Z,49.46
2023-03-05T14:39:46.534Z,50.50
2023-03-05T14:42:27.381Z,49.24
2023-03-05T14:44:57.316Z,49.23
2023-03-05T14:47:27.277Z,49.22
2023-03-05T14:49:56.194Z,49.04
2023-03-05T14:52:26.058Z,49.83
2023-03-05T14:54:55.674Z,49.56
2023-03-05T14:57:27.913Z,49.81
2023-03-05T14:59:56.600Z,50.40
2023-03-05T15:02:27.279Z,49.29
2023-03-05T15:04:55.782Z,49.92
2023-03-05T15:07:31.347Z,50.69
2023-03-05T15:10:00.417Z,49.95
2023-03-05T15:12:29.060Z,49.86
2023-03-05T15:14:57.781Z,50.66
2023-03-05T15:17:47.821Z,52.12
2023-03-05T15:20:24.350Z,51.82
2023-03-05T15:22:53.854Z,50.09
2023-03-05T15:25:24.869Z,51.31
2023-03-05T15:27:53.528Z,49.73
2023-03-05T15:30:29.002Z,51.67
2023-03-05T15:33:00.845Z,50.58
2023-03-05T15:35:29.636Z,49.53
2023-03-05T15:37:58.780Z,50.67
2023-03-05T15:40:28.738Z,49.54
2023-03-05T15:42:59.140Z,50.75
2023-03-05T16:04:44.806Z,51.32
2023-03-05T16:10:00.811Z,50.63
2023-03-05T16:42:35.145Z,51.43
2023-03-05T16:45:14.087Z,51.26
2023-03-05T16:50:26.497Z,52.51
2023-03-05T16:52:55.455Z,52.50
2023-03-05T17:11:49.936Z,52.28
2023-03-05T17:25:08.966Z,53.73
2023-03-05T17:52:02.436Z,56.00
2023-03-05T18:02:51.403Z,57.07
2023-03-05T18:27:07.007Z,55.52
2023-03-05T18:29:44.927Z,56.01
2023-03-05T19:19:30.197Z,58.07
2023-03-05T20:10:48.275Z,61.00
2023-03-05T20:13:16.603Z,61.28
2023-03-05T20:15:46.508Z,61.45
2023-03-05T20:18:15.045Z,61.58
2023-03-05T20:20:44.333Z,60.85
2023-03-05T20:23:13.097Z,61.84
2023-03-05T20:25:41.559Z,60.46
2023-03-05T20:28:10.064Z,61.05
2023-03-05T20:30:38.343Z,61.23
2023-03-05T20:33:06.973Z,60.77
2023-03-05T20:35:35.710Z,62.03
2023-03-05T20:38:21.289Z,60.28
2023-03-05T20:40:52.281Z,61.83
2023-03-05T20:43:21.852Z,61.10
2023-03-05T20:45:51.058Z,60.94
2023-03-05T20:48:20.242Z,61.62
2023-03-05T20:50:48.753Z,61.49
2023-03-05T20:53:17.676Z,60.98
2023-03-05T20:55:46.354Z,61.63
2023-03-05T20:58:15.006Z,61.94
2023-03-05T21:00:43.587Z,62.30
2023-03-05T21:03:12.155Z,61.89
2023-03-05T21:05:40.528Z,60.63
2023-03-05T21:08:08.781Z,62.40
2023-03-05T21:10:37.973Z,63.04
2023-03-05T21:13:05.961Z,60.82
2023-03-05T21:15:34.153Z,62.21
2023-03-05T21:18:02.504Z,63.11
2023-03-05T21:20:30.765Z,62.90
2023-03-05T21:22:59.568Z,62.55
2023-03-05T21:25:31.744Z,62.89
2023-03-05T21:28:16.756Z,62.77
2023-03-05T21:30:48.468Z,62.13
2023-03-05T21:33:19.572Z,63.23
2023-03-05T21:35:47.756Z,62.87
2023-03-05T21:38:15.987Z,64.01
2023-03-05T21:40:45.860Z,63.07
2023-03-05T21:43:15.571Z,63.41
2023-03-05T21:45:44.238Z,63.95
2023-03-05T21:48:12.305Z,63.56
2023-03-05T21:50:42.625Z,63.74
2023-03-05T21:53:12.384Z,64.06
2023-03-05T21:56:03.246Z,64.36
2023-03-05T21:58:34.031Z,64.58
2023-03-05T22:01:02.353Z,65.79
2023-03-05T22:03:30.934Z,66.00
2023-03-05T22:05:58.735Z,65.47
2023-03-05T22:08:26.579Z,65.97
2023-03-05T22:10:54.747Z,66.57
2023-03-05T22:13:22.604Z,67.08
2023-03-05T22:15:55.040Z,67.46
2023-03-05T22:18:28.688Z,67.55
2023-03-05T22:20:58.155Z,67.32
2023-03-05T22:23:28.216Z,67.04
2023-03-05T22:25:57.652Z,68.98
2023-03-05T22:28:26.759Z,67.86
2023-03-05T22:30:55.484Z,67.79
2023-03-05T22:33:23.731Z,67.70
2023-03-05T22:35:51.975Z,67.83
2023-03-05T22:38:20.394Z,68.24
2023-03-05T22:40:49.959Z,68.88
2023-03-05T22:43:19.255Z,68.39
2023-03-05T22:45:47.379Z,68.80
2023-03-05T22:48:15.954Z,69.20
2023-03-05T22:50:46.825Z,69.64
2023-03-05T22:53:15.551Z,69.37
2023-03-05T22:55:43.451Z,69.93
2023-03-05T22:58:13.453Z,70.05
2023-03-05T23:00:41.788Z,70.59
2023-03-05T23:03:09.812Z,69.79
2023-03-05T23:05:39.316Z,70.18
2023-03-05T23:08:08.481Z,70.53
2023-03-05T23:10:36.635Z,70.32
2023-03-05T23:13:04.486Z,70.81
2023-03-05T23:15:35.885Z,70.99
2023-03-05T23:18:06.712Z,70.38
2023-03-05T23:20:36.717Z,70.83
2023-03-05T23:23:04.767Z,70.36
2023-03-05T23:25:35.094Z,71.49
2023-03-05T23:28:04.569Z,71.45
2023-03-05T23:30:35.120Z,71.14
2023-03-05T23:33:07.752Z,71.20
2023-03-05T23:35:39.213Z,71.11
2023-03-05T23:38:09.914Z,71.47
2023-03-05T23:40:41.690Z,71.21
2023-03-05T23:43:11.117Z,71.06
2023-03-05T23:45:42.023Z,71.53
2023-03-05T23:48:10.105Z,72.43
2023-03-05T23:50:41.465Z,72.30
2023-03-05T23:53:10.033Z,72.10
2023-03-05T23:55:43.584Z,72.75
2023-03-05T23:58:11.790Z,72.30
